Time;durP1;ratioP1;P1;durP2;ratioP2;P2;SDS_P1;SDS_P2;PMS_P1;PMS_P2;Temp;Humidity;BMP_temperature;BMP_pressure;BME280_temperature;BME280_humidity;BME280_pressure;Samples;Min_cycle;Max_cycle;Signal;HPM_P1;HPM_P2
2021/01/04 00:01:53;;;;;;;;;;;;;;;15.86;56.26;100363.84;4845053;29;1795;-73
2021/01/04 00:04:31;;;;;;;;;;;;;;;15.84;56.08;100363.91;4869692;29;1914;-72
2021/01/04 00:07:06;;;;;;;;;;;;;;;15.88;55.94;100351.47;4865715;29;1408;-72
2021/01/04 00:09:42;;;;;;;;;;;;;;;15.83;56.06;100343.84;4865519;29;1623;-70
2021/01/04 00:12:30;;;;;;;;;;;;;;;15.79;56.16;100344.06;4869505;29;1658;-71
2021/01/04 00:15:06;;;;;;;;;;;;;;;15.83;56.19;100346.47;4866297;29;1742;-71
2021/01/04 00:17:51;;;;;;;;;;;;;;;15.81;56.00;100340.41;4869231;29;1701;-72
2021/01/04 00:20:41;;;;;;;;;;;;;;;15.78;55.81;100337.94;4848910;29;1752;-72
2021/01/04 00:23:14;;;;;;;;;;;;;;;15.76;55.95;100334.56;4867301;29;1840;-71
2021/01/04 00:25:46;;;;;;;;;;;;;;;15.72;55.98;100324.28;4866361;29;1911;-72
2021/01/04 00:28:14;;;;;;;;;;;;;;;15.72;55.95;100329.53;4869573;29;1511;-72
2021/01/04 00:30:49;;;;;;;;;;;;;;;15.72;56.08;100329.53;4868303;29;1611;-72
2021/01/04 00:33:28;;;;;;;;;;;;;;;15.71;55.94;100323.44;4873759;29;1595;-72
2021/01/04 00:35:59;;;;;;;;;;;;;;;15.77;56.68;100324.91;4865093;29;1421;-72
2021/01/04 00:38:46;;;;;;;;;;;;;;;15.75;55.83;100319.72;4869427;29;1721;-72
2021/01/04 00:41:18;;;;;;;;;;;;;;;15.72;56.02;100314.63;4869212;29;1492;-72
2021/01/04 00:43:49;;;;;;;;;;;;;;;15.74;56.61;100315.41;4869061;29;1589;-72
2021/01/04 00:46:19;;;;;;;;;;;;;;;15.72;55.79;100319.03;4850174;29;2043;-72
2021/01/04 00:48:56;;;;;;;;;;;;;;;15.74;55.87;100318.03;4866992;29;1757;-72
2021/01/04 00:51:32;;;;;;;;;;;;;;;15.75;56.08;100317.09;4867446;29;1758;-73
2021/01/04 00:54:03;;;;;;;;;;;;;;;15.67;56.16;100316.66;4866838;29;1718;-73
2021/01/04 00:56:49;;;;;;;;;;;;;;;15.67;56.16;100316.66;4867306;29;1750;-73
2021/01/04 00:59:29;;;;;;;;;;;;;;;15.67;56.13;100319.28;4877672;29;1805;-73
2021/01/04 01:01:56;;;;;;;;;;;;;;;15.72;55.93;100326.91;4875961;29;1749;-73
2021/01/04 01:04:37;;;;;;;;;;;;;;;15.64;56.24;100335.19;4875580;29;1914;-71
2021/01/04 01:07:09;;;;;;;;;;;;;;;15.61;56.32;100340.59;4872780;29;1564;-74
2021/01/04 01:09:37;;;;;;;;;;;;;;;15.62;55.96;100342.28;4871540;29;1804;-73
2021/01/04 01:12:10;;;;;;;;;;;;;;;15.65;55.64;100333.41;4871432;29;1627;-72
2021/01/04 01:14:44;;;;;;;;;;;;;;;15.66;56.43;100330.69;4871220;29;1615;-73
2021/01/04 01:17:31;;;;;;;;;;;;;;;15.67;56.21;100331.53;4871054;29;1543;-72
2021/01/04 01:19:59;;;;;;;;;;;;;;;15.61;56.05;100327.47;4871036;29;1773;-73
2021/01/04 01:22:31;;;;;;;;;;;;;;;15.62;55.92;100336.19;4871754;29;1658;-72
2021/01/04 01:24:58;;;;;;;;;;;;;;;15.58;55.74;100334.63;4880484;29;1978;-72
2021/01/04 01:27:39;;;;;;;;;;;;;;;15.61;55.99;100332.72;4880695;29;1724;-73
2021/01/04 01:30:11;;;;;;;;;;;;;;;15.59;55.87;100328.47;4880908;29;1582;-72
2021/01/04 01:32:57;;;;;;;;;;;;;;;15.54;56.13;100320.81;4880978;29;1345;-73
2021/01/04 01:35:23;;;;;;;;;;;;;;;15.56;56.04;100324.22;4849605;29;1810;-72
2021/01/04 01:38:08;;;;;;;;;;;;;;;15.54;55.78;100323.44;4880443;29;1733;-73
2021/01/04 01:40:47;;;;;;;;;;;;;;;15.58;56.31;100325.00;4879821;29;1772;-72
2021/01/04 01:43:22;;;;;;;;;;;;;;;15.55;56.05;100319.88;4880189;29;1749;-73
2021/01/04 01:46:18;;;;;;;;;;;;;;;15.61;56.32;100323.97;4871274;29;1915;-72
2021/01/04 01:48:47;;;;;;;;;;;;;;;15.55;56.34;100327.78;4823976;29;1858;-72
2021/01/04 01:51:27;;;;;;;;;;;;;;;15.54;55.97;100326.06;4880768;29;1808;-72
2021/01/04 01:54:01;;;;;;;;;;;;;;;15.52;56.29;100322.66;4880513;29;1764;-73
2021/01/04 01:56:45;;;;;;;;;;;;;;;15.48;56.09;100318.50;4880688;29;1799;-73
2021/01/04 01:59:23;;;;;;;;;;;;;;;15.50;56.22;100319.28;4878425;29;1757;-73
2021/01/04 02:02:02;;;;;;;;;;;;;;;15.52;56.08;100320.03;4880822;29;1745;-73
2021/01/04 02:04:47;;;;;;;;;;;;;;;15.54;56.06;100322.56;4880433;29;1911;-73
2021/01/04 02:07:13;;;;;;;;;;;;;;;15.54;56.13;100326.06;4878826;29;1726;-73
2021/01/04 02:09:55;;;;;;;;;;;;;;;15.47;56.49;100322.03;4869780;29;1741;-73
2021/01/04 02:12:24;;;;;;;;;;;;;;;15.48;56.55;100326.38;4873831;29;1782;-73
2021/01/04 02:15:01;;;;;;;;;;;;;;;15.44;55.97;100327.41;4877162;29;1658;-74
2021/01/04 02:17:27;;;;;;;;;;;;;;;15.46;56.03;100329.97;4850931;29;1636;-73
2021/01/04 02:20:16;;;;;;;;;;;;;;;15.54;56.37;100325.19;4877180;29;1669;-72
2021/01/04 02:22:42;;;;;;;;;;;;;;;15.56;55.73;100313.72;4876191;29;1815;-72
2021/01/04 02:25:09;;;;;;;;;;;;;;;15.47;56.37;100319.41;4867794;29;1907;-72
2021/01/04 02:27:42;;;;;;;;;;;;;;;15.44;56.52;100322.16;4866169;29;1655;-73
2021/01/04 02:30:10;;;;;;;;;;;;;;;15.44;56.54;100319.53;4865583;29;1495;-73
2021/01/04 02:32:36;;;;;;;;;;;;;;;15.48;56.03;100315.00;4856200;29;1259;-72
2021/01/04 02:35:03;;;;;;;;;;;;;;;15.48;56.05;100315.88;4868453;29;1936;-73
2021/01/04 02:37:29;;;;;;;;;;;;;;;15.42;56.73;100310.03;4867205;29;1643;-72
2021/01/04 02:40:00;;;;;;;;;;;;;;;15.39;56.13;100313.66;4865829;29;1662;-73
2021/01/04 02:42:31;;;;;;;;;;;;;;;15.42;56.50;100317.91;4867300;29;1658;-73
2021/01/04 02:44:58;;;;;;;;;;;;;;;15.35;56.22;100325.22;4873743;29;1911;-72
2021/01/04 02:47:41;;;;;;;;;;;;;;;15.35;56.28;100330.47;4873138;29;1732;-72
2021/01/04 02:50:23;;;;;;;;;;;;;;;15.39;56.37;100321.53;4866307;29;1653;-72
2021/01/04 02:52:49;;;;;;;;;;;;;;;15.39;56.30;100318.06;4864793;29;1688;-73
2021/01/04 02:55:22;;;;;;;;;;;;;;;15.39;56.29;100321.53;4868932;29;1611;-72
2021/01/04 02:58:01;;;;;;;;;;;;;;;15.38;56.31;100322.44;4867581;29;1611;-72
2021/01/04 03:00:27;;;;;;;;;;;;;;;15.33;56.37;100320.06;4868827;29;1682;-71
2021/01/04 03:03:00;;;;;;;;;;;;;;;15.37;56.79;100322.53;4867961;29;1628;-73
2021/01/04 03:05:27;;;;;;;;;;;;;;;15.45;56.12;100318.59;4867076;29;1907;-71
2021/01/04 03:07:58;;;;;;;;;;;;;;;15.41;56.18;100322.31;4868302;29;1707;-72
2021/01/04 03:10:26;;;;;;;;;;;;;;;15.33;56.44;100317.44;4869473;29;1032;-71
2021/01/04 03:13:08;;;;;;;;;;;;;;;15.31;56.60;100319.31;4868664;29;1796;-71
2021/01/04 03:15:41;;;;;;;;;;;;;;;15.38;56.40;100325.06;4868776;29;1797;-72
2021/01/04 03:18:07;;;;;;;;;;;;;;;15.35;56.25;100325.22;4870756;29;1693;-71
2021/01/04 03:20:34;;;;;;;;;;;;;;;15.38;55.98;100324.25;4869801;29;1835;-71
2021/01/04 03:23:00;;;;;;;;;;;;;;;15.27;56.13;100316.91;4859326;29;1912;-72
2021/01/04 03:25:32;;;;;;;;;;;;;;;15.27;56.58;100325.63;4846183;29;1903;-72
2021/01/04 03:27:59;;;;;;;;;;;;;;;15.23;56.21;100317.97;4848187;29;1725;-72
2021/01/04 03:30:25;;;;;;;;;;;;;;;15.29;56.57;100310.63;4847899;29;1733;-71
2021/01/04 03:32:52;;;;;;;;;;;;;;;15.35;56.47;100306.84;4842524;29;1361;-71
2021/01/04 03:35:19;;;;;;;;;;;;;;;15.30;56.53;100316.75;4849660;29;1596;-72
2021/01/04 03:37:45;;;;;;;;;;;;;;;15.23;56.08;100317.97;4849052;29;1845;-71
2021/01/04 03:40:12;;;;;;;;;;;;;;;15.22;56.18;100316.28;4847634;29;1580;-71
2021/01/04 03:42:38;;;;;;;;;;;;;;;15.25;56.51;100316.13;4860996;29;1531;-72
2021/01/04 03:45:05;;;;;;;;;;;;;;;15.26;56.24;100321.28;4847590;29;1899;-71
2021/01/04 03:47:31;;;;;;;;;;;;;;;15.22;56.41;100318.91;4847417;29;1544;-73
2021/01/04 03:49:57;;;;;;;;;;;;;;;15.19;56.72;100316.44;4848327;29;1702;-72
2021/01/04 03:52:24;;;;;;;;;;;;;;;15.17;56.72;100318.25;4849425;29;1666;-72
2021/01/04 03:54:50;;;;;;;;;;;;;;;15.23;56.66;100315.34;4849170;29;1729;-72
2021/01/04 03:57:16;;;;;;;;;;;;;;;15.24;56.47;100312.66;4845899;29;1595;-72
2021/01/04 03:59:42;;;;;;;;;;;;;;;15.18;56.47;100317.34;4851126;29;1752;-72
2021/01/04 04:02:09;;;;;;;;;;;;;;;15.25;56.73;100303.00;4847289;29;1365;-73
2021/01/04 04:04:35;;;;;;;;;;;;;;;15.14;56.17;100305.28;4850723;29;1753;-72
2021/01/04 04:07:01;;;;;;;;;;;;;;;15.15;56.20;100297.38;4846946;29;1907;-73
2021/01/04 04:09:28;;;;;;;;;;;;;;;15.18;56.63;100291.09;4847387;29;1501;-72
2021/01/04 04:11:54;;;;;;;;;;;;;;;15.19;56.31;100290.19;4847474;29;1623;-72
2021/01/04 04:14:21;;;;;;;;;;;;;;;15.14;56.36;100281.69;4847227;29;1792;-72
2021/01/04 04:16:48;;;;;;;;;;;;;;;15.19;56.26;100292.81;4847461;29;1646;-73
2021/01/04 04:19:14;;;;;;;;;;;;;;;15.15;56.30;100275.50;4848544;29;1725;-72
2021/01/04 04:21:40;;;;;;;;;;;;;;;15.10;56.45;100280.16;4849307;29;1682;-72
2021/01/04 04:24:07;;;;;;;;;;;;;;;15.12;56.90;100281.78;4869576;29;1747;-72
2021/01/04 04:26:33;;;;;;;;;;;;;;;15.12;56.68;100275.66;4866078;29;1983;-72
2021/01/04 04:28:59;;;;;;;;;;;;;;;15.10;56.75;100272.28;4867414;29;1735;-72
2021/01/04 04:31:25;;;;;;;;;;;;;;;15.02;56.43;100275.25;4867367;29;1710;-72
2021/01/04 04:33:52;;;;;;;;;;;;;;;15.03;56.07;100276.13;4858834;29;1856;-72
2021/01/04 04:36:28;;;;;;;;;;;;;;;15.05;56.32;100279.50;4850837;29;1643;-72
2021/01/04 04:38:54;;;;;;;;;;;;;;;15.12;56.50;100279.16;4867168;29;1671;-72
2021/01/04 04:41:39;;;;;;;;;;;;;;;15.07;56.12;100280.31;4868588;29;1510;-72
2021/01/04 04:44:13;;;;;;;;;;;;;;;15.02;56.13;100285.75;4869528;29;1384;-72
2021/01/04 04:46:39;;;;;;;;;;;;;;;15.09;56.27;100289.78;4869765;29;1970;-72
2021/01/04 04:49:14;;;;;;;;;;;;;;;14.99;56.30;100282.44;4864743;29;1738;-72
2021/01/04 04:51:40;;;;;;;;;;;;;;;15.01;56.43;100273.59;4866328;29;1508;-72
2021/01/04 04:54:06;;;;;;;;;;;;;;;15.01;55.97;100270.97;4873237;29;1210;-72
2021/01/04 04:56:35;;;;;;;;;;;;;;;15.00;56.35;100285.00;4869559;29;1858;-72
2021/01/04 04:59:02;;;;;;;;;;;;;;;14.98;56.85;100278.97;4873228;29;1757;-72
2021/01/04 05:01:48;;;;;;;;;;;;;;;14.96;56.43;100279.94;4869476;29;1610;-72
2021/01/04 05:04:41;;;;;;;;;;;;;;;14.98;56.34;100283.38;4865132;29;1795;-71
2021/01/04 05:07:08;;;;;;;;;;;;;;;14.99;55.80;100285.91;4867209;29;1911;-72
2021/01/04 05:09:53;;;;;;;;;;;;;;;14.95;56.52;100283.53;4865159;29;1731;-72
2021/01/04 05:12:26;;;;;;;;;;;;;;;15.05;56.73;100284.75;4865592;29;1660;-72
2021/01/04 05:14:55;;;;;;;;;;;;;;;15.07;56.28;100290.78;4865126;29;1675;-72
2021/01/04 05:17:30;;;;;;;;;;;;;;;15.01;55.95;100294.56;4864903;29;1700;-71
2021/01/04 05:20:02;;;;;;;;;;;;;;;15.01;56.58;100294.56;4864962;29;1656;-72
2021/01/04 05:22:34;;;;;;;;;;;;;;;14.98;56.29;100292.09;4865215;29;1740;-72
2021/01/04 05:25:00;;;;;;;;;;;;;;;14.94;56.35;100287.06;4864883;29;1916;-73
2021/01/04 05:27:36;;;;;;;;;;;;;;;14.94;56.30;100292.31;4864696;29;1718;-72
2021/01/04 05:30:08;;;;;;;;;;;;;;;14.91;56.10;100282.81;4871258;29;1522;-73
2021/01/04 05:32:53;;;;;;;;;;;;;;;14.97;56.40;100297.41;4866565;29;1345;-72
2021/01/04 05:35:19;;;;;;;;;;;;;;;14.95;56.35;100297.50;4851193;29;1790;-71
2021/01/04 05:37:48;;;;;;;;;;;;;;;14.97;56.91;100298.25;4867613;29;1762;-71
2021/01/04 05:40:33;;;;;;;;;;;;;;;14.91;56.32;100297.69;4865351;29;1751;-72
2021/01/04 05:43:18;;;;;;;;;;;;;;;14.95;56.94;100294.88;4864422;29;1599;-71
2021/01/04 05:45:56;;;;;;;;;;;;;;;14.93;56.29;100298.47;4869457;29;1985;-73
2021/01/04 05:48:41;;;;;;;;;;;;;;;14.95;56.45;100294.00;4869435;29;1794;-71
2021/01/04 05:51:08;;;;;;;;;;;;;;;14.94;56.26;100295.78;4870220;29;1750;-71
2021/01/04 05:53:34;;;;;;;;;;;;;;;14.91;56.27;100300.31;4868107;29;1767;-71
2021/01/04 05:56:01;;;;;;;;;;;;;;;14.91;56.54;100298.53;4868185;29;1651;-71
2021/01/04 05:58:31;;;;;;;;;;;;;;;14.85;56.92;100296.22;4868207;29;1706;-71
2021/01/04 06:01:14;;;;;;;;;;;;;;;14.82;56.53;100308.63;4867870;29;1616;-72
2021/01/04 06:03:41;;;;;;;;;;;;;;;14.91;56.26;100303.78;4867811;29;1568;-72
2021/01/04 06:06:27;;;;;;;;;;;;;;;14.89;56.45;100315.28;4851025;29;1915;-72
2021/01/04 06:09:05;;;;;;;;;;;;;;;14.90;56.74;100306.47;4867696;29;1660;-72
2021/01/04 06:11:32;;;;;;;;;;;;;;;14.84;56.51;100312.00;4850971;29;1649;-72
2021/01/04 06:14:06;;;;;;;;;;;;;;;14.81;56.49;100306.91;4868453;29;1640;-73
2021/01/04 06:16:32;;;;;;;;;;;;;;;14.85;56.59;100300.59;4865943;29;1619;-73
2021/01/04 06:19:06;;;;;;;;;;;;;;;14.84;56.62;100312.00;4869556;29;1687;-72
2021/01/04 06:21:41;;;;;;;;;;;;;;;14.81;56.82;100312.16;4869896;29;1516;-72
2021/01/04 06:24:09;;;;;;;;;;;;;;;14.78;56.74;100308.78;4873390;29;1736;-72
2021/01/04 06:26:35;;;;;;;;;;;;;;;14.80;56.66;100306.09;4850766;29;1903;-73
2021/01/04 06:29:05;;;;;;;;;;;;;;;14.85;56.14;100308.47;4869490;29;1553;-72
2021/01/04 06:31:41;;;;;;;;;;;;;;;14.83;56.48;100305.09;4869605;29;1652;-72
2021/01/04 06:34:25;;;;;;;;;;;;;;;14.80;56.66;100308.72;4861406;29;1751;-72
2021/01/04 06:36:54;;;;;;;;;;;;;;;14.81;56.38;100312.16;4867549;29;1699;-73
2021/01/04 06:39:25;;;;;;;;;;;;;;;14.85;56.34;100311.94;4873172;29;1477;-72
2021/01/04 06:41:52;;;;;;;;;;;;;;;14.84;56.96;100322.50;4868857;29;1533;-73
2021/01/04 06:44:24;;;;;;;;;;;;;;;14.77;56.48;100320.16;4872927;29;1630;-72
2021/01/04 06:47:20;;;;;;;;;;;;;;;14.83;57.03;100328.69;4868890;29;1939;-72
2021/01/04 06:49:55;;;;;;;;;;;;;;;14.76;56.53;100326.34;4861407;29;1745;-72
2021/01/04 06:52:40;;;;;;;;;;;;;;;14.81;56.60;100320.03;4870094;29;1726;-72
2021/01/04 06:55:25;;;;;;;;;;;;;;;14.71;57.01;100322.25;4857895;29;1699;-72
2021/01/04 06:58:06;;;;;;;;;;;;;;;14.73;56.58;100321.25;4864938;29;1623;-72
2021/01/04 07:00:45;;;;;;;;;;;;;;;14.73;56.86;100320.41;4864927;29;1619;-72
2021/01/04 07:03:30;;;;;;;;;;;;;;;14.79;57.10;100327.97;4864758;29;1662;-72
2021/01/04 07:06:10;;;;;;;;;;;;;;;14.74;56.70;100322.09;4848126;29;1944;-72
2021/01/04 07:08:45;;;;;;;;;;;;;;;14.67;56.71;100320.69;4864550;29;1682;-72
2021/01/04 07:11:14;;;;;;;;;;;;;;;14.76;56.89;100317.63;4868743;29;1591;-72
2021/01/04 07:13:49;;;;;;;;;;;;;;;14.71;57.41;100303.91;4873798;29;1693;-72
2021/01/04 07:16:16;;;;;;;;;;;;;;;14.76;56.73;100321.09;4874766;29;1694;-72
2021/01/04 07:19:00;;;;;;;;;;;;;;;14.67;56.69;100311.06;4874454;29;1745;-71
2021/01/04 07:21:30;;;;;;;;;;;;;;;14.63;56.47;100311.25;4872090;29;1671;-71
2021/01/04 07:24:22;;;;;;;;;;;;;;;14.70;56.39;100320.53;4870821;29;1623;-71
2021/01/04 07:27:06;;;;;;;;;;;;;;;14.73;56.39;100315.16;4846016;29;1907;-71
2021/01/04 07:29:59;;;;;;;;;;;;;;;14.71;56.93;100311.75;4849903;29;1667;-72
2021/01/04 07:32:28;;;;;;;;;;;;;;;14.88;56.69;100303.94;4872007;29;1306;-69
2021/01/04 07:34:58;;;;;;;;;;;;;;;14.81;56.72;100313.00;4870468;29;1742;-73
2021/01/04 07:37:37;;;;;;;;;;;;;;;14.81;56.55;100309.53;4866244;29;1612;-73
2021/01/04 07:40:04;;;;;;;;;;;;;;;14.88;56.35;100303.09;4866058;29;1624;-74
2021/01/04 07:42:51;;;;;;;;;;;;;;;14.74;56.73;100312.44;4859127;29;1591;-73
2021/01/04 07:45:23;;;;;;;;;;;;;;;14.78;57.05;100310.53;4866011;29;1907;-73
2021/01/04 07:48:08;;;;;;;;;;;;;;;14.77;57.00;100322.78;4866716;29;1497;-75
2021/01/04 07:50:38;;;;;;;;;;;;;;;14.70;56.64;100317.91;4867965;29;1710;-75
2021/01/04 07:53:04;;;;;;;;;;;;;;;14.73;57.14;100323.88;4871152;29;1725;-76
2021/01/04 07:55:45;;;;;;;;;;;;;;;14.76;56.67;100328.13;4870071;29;1678;-76
2021/01/04 07:58:24;;;;;;;;;;;;;;;14.77;57.22;100327.22;4865995;29;1648;-74
2021/01/04 08:01:00;;;;;;;;;;;;;;;14.74;56.79;100330.78;4858849;29;1611;-71
2021/01/04 08:03:45;;;;;;;;;;;;;;;14.81;57.14;100327.88;4865759;29;1636;-72
2021/01/04 08:06:17;;;;;;;;;;;;;;;14.84;57.05;100339.09;4865752;29;1939;-72
2021/01/04 08:08:45;;;;;;;;;;;;;;;14.81;56.92;100338.38;4865485;29;1668;-70
2021/01/04 08:11:24;;;;;;;;;;;;;;;14.79;57.16;100341.09;4863565;29;1523;-72
2021/01/04 08:14:08;;;;;;;;;;;;;;;14.88;56.79;100334.56;4863265;29;1709;-71
2021/01/04 08:16:37;;;;;;;;;;;;;;;14.83;56.66;100336.56;4850753;29;1710;-73
2021/01/04 08:19:05;;;;;;;;;;;;;;;14.81;56.71;100344.47;4857910;29;1583;-72
2021/01/04 08:21:31;;;;;;;;;;;;;;;14.12;50.87;100356.34;4857210;29;1702;-72
2021/01/04 08:24:05;;;;;;;;;;;;;;;13.40;45.32;100349.84;4865448;29;1588;-73
2021/01/04 08:26:44;;;;;;;;;;;;;;;13.68;48.83;100350.38;4866013;29;1978;-71
2021/01/04 08:29:25;;;;;;;;;;;;;;;14.20;53.96;100356.84;4868198;29;857;-70
2021/01/04 08:31:58;;;;;;;;;;;;;;;14.43;54.12;100351.50;4866270;29;1309;-71
2021/01/04 08:34:35;;;;;;;;;;;;;;;14.46;52.92;100353.13;4870044;29;1648;-70
2021/01/04 08:37:02;;;;;;;;;;;;;;;14.57;51.37;100341.22;4871900;29;1444;-71
2021/01/04 08:39:32;;;;;;;;;;;;;;;14.66;52.47;100351.28;4869896;29;1865;-71
2021/01/04 08:42:04;;;;;;;;;;;;;;;14.62;53.54;100348.91;4873599;29;1481;-71
2021/01/04 08:44:34;;;;;;;;;;;;;;;14.59;54.03;100344.63;4862888;29;1669;-71
2021/01/04 08:47:26;;;;;;;;;;;;;;;14.81;51.98;100338.38;4867042;29;1931;-74
2021/01/04 08:50:00;;;;;;;;;;;;;;;15.03;53.13;100329.44;4850894;29;1855;-72
2021/01/04 08:52:37;;;;;;;;;;;;;;;15.20;53.17;100333.84;4871149;29;1622;-73
2021/01/04 08:55:04;;;;;;;;;;;;;;;15.37;52.76;100333.91;4872288;29;1440;-71
2021/01/04 08:57:44;;;;;;;;;;;;;;;15.50;53.08;100324.53;4870192;29;1521;-77
2021/01/04 09:00:15;;;;;;;;;;;;;;;15.78;52.53;100330.06;4869525;29;1635;-74
2021/01/04 09:02:42;;;;;;;;;;;;;;;15.99;52.04;100329.91;4863479;29;1567;-71
2021/01/04 09:05:10;;;;;;;;;;;;;;;16.21;51.92;100328.69;4872930;29;1734;-71
2021/01/04 09:07:53;;;;;;;;;;;;;;;16.20;52.02;100323.53;4864341;29;1489;-69
2021/01/04 09:10:22;;;;;;;;;;;;;;;16.30;52.19;100319.47;4864827;29;1133;-68
2021/01/04 09:13:06;;;;;;;;;;;;;;;16.40;52.02;100312.81;4871739;29;1310;-70
2021/01/04 09:15:33;;;;;;;;;;;;;;;16.50;51.73;100316.63;4848336;29;1865;-67
2021/01/04 09:17:59;;;;;;;;;;;;;;;16.50;51.91;100321.03;4868151;29;1760;-70
2021/01/04 09:20:46;;;;;;;;;;;;;;;16.53;51.68;100324.34;4854258;29;1797;-68
2021/01/04 09:23:18;;;;;;;;;;;;;;;16.70;51.73;100315.56;4847236;29;1750;-71
2021/01/04 09:25:50;;;;;;;;;;;;;;;16.63;51.95;100314.19;4862370;29;1939;-70
2021/01/04 09:28:17;;;;;;;;;;;;;;;16.61;51.88;100319.56;4868684;29;1859;-70
2021/01/04 09:30:44;;;;;;;;;;;;;;;16.68;51.72;100320.94;4867366;29;1806;-69
2021/01/04 09:33:12;;;;;;;;;;;;;;;16.72;51.64;100319.81;4859320;29;1755;-70
2021/01/04 09:35:38;;;;;;;;;;;;;;;16.73;51.68;100316.25;4868194;29;1131;-69
2021/01/04 09:38:22;;;;;;;;;;;;;;;16.80;51.73;100312.34;4852197;29;1313;-69
2021/01/04 09:40:50;;;;;;;;;;;;;;;16.71;51.67;100304.13;4867768;29;1064;-72
2021/01/04 09:43:20;;;;;;;;;;;;;;;16.76;51.85;100304.72;4956015;24;2268;-74
2021/01/04 09:46:07;;;;;;;;;;;;;;;16.78;51.76;100313.34;4896361;29;1907;-72
2021/01/04 09:48:37;;;;;;;;;;;;;;;16.79;51.71;100310.66;4904739;29;1647;-73
2021/01/04 09:51:06;;;;;;;;;;;;;;;16.84;51.31;100303.34;4895488;29;1779;-74
2021/01/04 09:53:33;;;;;;;;;;;;;;;16.85;51.51;100304.19;4909732;29;1608;-74
2021/01/04 09:56:19;;;;;;;;;;;;;;;16.86;51.57;100309.38;4895113;29;1723;-74
2021/01/04 09:58:47;;;;;;;;;;;;;;;16.86;51.45;100298.00;4896178;29;1675;-73
2021/01/04 10:01:18;;;;;;;;;;;;;;;16.93;51.49;100302.00;4895809;29;1636;-75
2021/01/04 10:03:54;;;;;;;;;;;;;;;16.96;51.48;100300.97;4896265;29;1609;-74
2021/01/04 10:06:21;;;;;;;;;;;;;;;16.99;51.49;100306.06;4892199;29;1913;-74
2021/01/04 10:08:48;;;;;;;;;;;;;;;17.00;51.30;100305.09;4896407;29;1572;-75
2021/01/04 10:11:19;;;;;;;;;;;;;;;17.01;51.26;100293.66;4895713;29;1179;-73
2021/01/04 10:13:45;;;;;;;;;;;;;;;17.02;51.33;100290.09;4894681;29;1986;-75
2021/01/04 10:16:14;;;;;;;;;;;;;;;17.04;51.43;100283.81;4895918;29;1731;-74
2021/01/04 10:18:47;;;;;;;;;;;;;;;17.07;51.14;100290.69;4896243;29;1817;-75
2021/01/04 10:21:18;;;;;;;;;;;;;;;17.08;51.26;100271.34;4905846;29;1845;-75
2021/01/04 10:23:47;;;;;;;;;;;;;;;17.10;51.36;100282.63;4896125;29;1663;-72
2021/01/04 10:26:41;;;;;;;;;;;;;;;17.11;51.21;100273.78;4877372;29;1974;-73
2021/01/04 10:29:08;;;;;;;;;;;;;;;17.15;51.22;100277.91;4893728;29;1236;-75
2021/01/04 10:31:35;;;;;;;;;;;;;;;17.15;51.37;100267.41;4894951;29;1740;-74
2021/01/04 10:34:06;;;;;;;;;;;;;;;17.15;51.29;100267.41;4896018;29;1628;-75
2021/01/04 10:36:33;;;;;;;;;;;;;;;17.17;51.25;100268.19;4887387;29;1616;-74
2021/01/04 10:39:02;;;;;;;;;;;;;;;17.18;51.11;100265.44;4895775;29;1684;-74
2021/01/04 10:41:29;;;;;;;;;;;;;;;17.21;51.10;100261.78;4895653;29;1640;-74
2021/01/04 10:44:05;;;;;;;;;;;;;;;17.21;51.31;100249.47;4894774;29;1635;-74
2021/01/04 10:46:34;;;;;;;;;;;;;;;17.24;51.44;100251.06;4894312;29;1911;-75
2021/01/04 10:49:08;;;;;;;;;;;;;;;17.27;51.26;100245.63;4895853;29;1145;-75
2021/01/04 10:51:36;;;;;;;;;;;;;;;17.29;51.26;100236.72;4895386;29;1262;-73
2021/01/04 10:54:13;;;;;;;;;;;;;;;17.29;50.91;100241.13;4895489;29;1752;-74
2021/01/04 10:56:42;;;;;;;;;;;;;;;17.27;51.37;100235.09;4894915;29;1703;-74
2021/01/04 10:59:14;;;;;;;;;;;;;;;17.30;51.23;100224.38;4894612;29;1692;-74
2021/01/04 11:01:42;;;;;;;;;;;;;;;17.30;51.27;100229.66;4890527;29;1768;-73
2021/01/04 11:04:10;;;;;;;;;;;;;;;17.33;51.25;100208.41;4895135;29;1576;-74
2021/01/04 11:06:38;;;;;;;;;;;;;;;17.32;51.25;100219.91;4895204;29;1902;-74
2021/01/04 11:09:12;;;;;;;;;;;;;;;17.33;51.39;100214.53;4895250;29;1608;-73
2021/01/04 11:11:40;;;;;;;;;;;;;;;17.36;51.32;100211.72;4894974;29;1569;-74
2021/01/04 11:14:12;;;;;;;;;;;;;;;17.38;51.04;100199.31;4895020;29;1612;-73
2021/01/04 11:16:45;;;;;;;;;;;;;;;17.41;51.28;100203.56;4894609;29;1679;-74
2021/01/04 11:19:11;;;;;;;;;;;;;;;17.38;51.21;100187.94;4886894;29;1672;-73
2021/01/04 11:21:39;;;;;;;;;;;;;;;17.36;51.24;100192.44;4893301;29;1534;-74
2021/01/04 11:24:05;;;;;;;;;;;;;;;17.41;51.06;100195.66;4895064;29;1671;-74
2021/01/04 11:26:32;;;;;;;;;;;;;;;17.38;51.22;100186.16;4895111;29;1906;-74
2021/01/04 11:29:01;;;;;;;;;;;;;;;17.41;51.45;100185.13;4895064;29;1743;-74
2021/01/04 11:31:33;;;;;;;;;;;;;;;17.40;51.15;100178.16;4893304;29;1816;-73
2021/01/04 11:34:00;;;;;;;;;;;;;;;17.41;51.05;100183.34;4894971;29;1708;-73
2021/01/04 11:36:26;;;;;;;;;;;;;;;17.44;51.08;100169.16;4892862;29;1728;-73
2021/01/04 11:38:52;;;;;;;;;;;;;;;17.48;51.20;100168.00;4894688;29;1688;-75
2021/01/04 11:41:39;;;;;;;;;;;;;;;17.47;51.25;100163.69;4892198;29;1688;-74
2021/01/04 11:44:08;;;;;;;;;;;;;;;17.50;51.23;100160.88;4893884;29;1711;-72
2021/01/04 11:46:34;;;;;;;;;;;;;;;17.54;51.03;100162.34;4894185;29;1992;-72
2021/01/04 11:49:01;;;;;;;;;;;;;;;17.46;50.77;100156.72;4895038;29;1198;-73
2021/01/04 11:51:27;;;;;;;;;;;;;;;17.42;51.21;100152.56;4894326;29;813;-73
2021/01/04 11:54:03;;;;;;;;;;;;;;;17.37;51.09;100149.38;4893788;29;1798;-75
2021/01/04 11:56:30;;;;;;;;;;;;;;;17.36;51.25;100147.69;4894019;29;1782;-72
2021/01/04 11:58:59;;;;;;;;;;;;;;;17.37;51.17;100129.16;4907874;29;1787;-70
2021/01/04 12:01:25;;;;;;;;;;;;;;;17.44;51.08;100130.50;4893968;29;1668;-68
2021/01/04 12:03:57;;;;;;;;;;;;;;;17.55;51.23;100132.50;4892003;29;1755;-67
2021/01/04 12:06:24;;;;;;;;;;;;;;;17.58;51.38;100126.19;4893461;29;1972;-63
2021/01/04 12:08:50;;;;;;;;;;;;;;;17.55;51.65;100124.59;4894159;29;1691;-65
2021/01/04 12:11:16;;;;;;;;;;;;;;;17.54;51.76;100114.97;4893759;29;1497;-69
2021/01/04 12:13:43;;;;;;;;;;;;;;;17.54;51.74;100114.97;4893232;29;1531;-68
2021/01/04 12:16:09;;;;;;;;;;;;;;;17.57;51.90;100114.81;4894042;29;1588;-67
2021/01/04 12:18:35;;;;;;;;;;;;;;;17.56;51.87;100107.88;4894656;29;1809;-67
2021/01/04 12:21:01;;;;;;;;;;;;;;;17.54;51.90;100104.44;4894436;29;1730;-67
2021/01/04 12:23:28;;;;;;;;;;;;;;;17.54;52.02;100101.78;4894147;29;1210;-70
2021/01/04 12:25:54;;;;;;;;;;;;;;;17.53;52.18;100097.50;4893796;29;1906;-68
2021/01/04 12:28:20;;;;;;;;;;;;;;;17.55;52.07;100098.25;4893537;29;1680;-68
2021/01/04 12:30:47;;;;;;;;;;;;;;;17.53;52.12;100089.59;4893165;29;1672;-69
2021/01/04 12:33:13;;;;;;;;;;;;;;;17.53;52.12;100089.59;4893541;29;1759;-69
2021/01/04 12:35:39;;;;;;;;;;;;;;;17.52;52.21;100079.97;4892375;29;733;-69
2021/01/04 12:38:06;;;;;;;;;;;;;;;17.49;52.09;100078.41;4893363;29;1839;-68
2021/01/04 12:40:34;;;;;;;;;;;;;;;17.41;52.32;100077.19;4893145;29;1731;-68
2021/01/04 12:43:01;;;;;;;;;;;;;;;17.48;52.10;100070.56;4893049;29;1664;-69
2021/01/04 12:45:29;;;;;;;;;;;;;;;17.46;52.01;100069.84;4893101;29;1628;-68
2021/01/04 12:47:55;;;;;;;;;;;;;;;17.42;51.98;100057.78;4892600;29;1923;-66
2021/01/04 12:50:22;;;;;;;;;;;;;;;17.39;51.45;100055.34;4892960;29;1746;-68
2021/01/04 12:52:49;;;;;;;;;;;;;;;17.42;50.29;100042.84;4892906;29;1661;-66
2021/01/04 12:55:20;;;;;;;;;;;;;;;17.36;50.05;100045.00;4893000;29;1675;-67
2021/01/04 12:57:49;;;;;;;;;;;;;;;17.30;48.47;100037.50;4892503;29;1712;-69
2021/01/04 13:00:23;;;;;;;;;;;;;;;17.29;50.04;100031.41;4892462;29;1727;-68
2021/01/04 13:02:50;;;;;;;;;;;;;;;17.28;49.69;100027.06;4892876;29;1659;-69
2021/01/04 13:05:16;;;;;;;;;;;;;;;17.31;49.39;100031.28;4893009;29;1691;-70
2021/01/04 13:07:45;;;;;;;;;;;;;;;17.30;49.58;100017.28;4891590;29;1914;-69
2021/01/04 13:10:12;;;;;;;;;;;;;;;17.31;48.85;100018.13;4893121;29;1019;-69
2021/01/04 13:12:38;;;;;;;;;;;;;;;17.32;48.92;100014.56;4893483;29;1739;-70
2021/01/04 13:15:06;;;;;;;;;;;;;;;17.39;48.53;100010.59;4892981;29;1767;-68